sensor_id;sensor_type;location;lat;lon;timestamp;temperature;humidity
23579;DHT22;11967;50.852;4.400;2023-02-16T00:01:41;12.40;99.90
23579;DHT22;11967;50.852;4.400;2023-02-16T00:04:32;12.50;99.90
23579;DHT22;11967;50.852;4.400;2023-02-16T00:06:58;12.60;99.90
23579;DHT22;11967;50.852;4.400;2023-02-16T00:09:24;12.60;99.90
23579;DHT22;11967;50.852;4.400;2023-02-16T00:11:51;12.70;99.90
23579;DHT22;11967;50.852;4.400;2023-02-16T00:14:37;12.80;99.90
23579;DHT22;11967;50.852;4.400;2023-02-16T00:17:04;12.90;99.90
23579;DHT22;11967;50.852;4.400;2023-02-16T00:19:39;12.80;99.90
23579;DHT22;11967;50.852;4.400;2023-02-16T00:22:06;12.70;99.90
23579;DHT22;11967;50.852;4.400;2023-02-16T00:24:32;12.60;99.90
23579;DHT22;11967;50.852;4.400;2023-02-16T00:26:59;12.50;99.90
23579;DHT22;11967;50.852;4.400;2023-02-16T00:29:29;12.50;99.90
23579;DHT22;11967;50.852;4.400;2023-02-16T00:31:56;12.40;99.90
23579;DHT22;11967;50.852;4.400;2023-02-16T00:36:53;12.30;99.90
23579;DHT22;11967;50.852;4.400;2023-02-16T00:39:19;12.30;99.90
23579;DHT22;11967;50.852;4.400;2023-02-16T00:41:45;12.30;99.90
23579;DHT22;11967;50.852;4.400;2023-02-16T00:44:40;12.30;99.90
23579;DHT22;11967;50.852;4.400;2023-02-16T00:47:29;12.30;99.90
23579;DHT22;11967;50.852;4.400;2023-02-16T00:49:57;12.20;99.90
23579;DHT22;11967;50.852;4.400;2023-02-16T00:52:35;12.30;99.90
23579;DHT22;11967;50.852;4.400;2023-02-16T00:55:07;12.20;99.90
23579;DHT22;11967;50.852;4.400;2023-02-16T00:57:41;12.10;99.90
23579;DHT22;11967;50.852;4.400;2023-02-16T01:00:22;12.10;99.90
23579;DHT22;11967;50.852;4.400;2023-02-16T01:02:50;12.10;99.90
23579;DHT22;11967;50.852;4.400;2023-02-16T01:05:16;12.20;99.90
23579;DHT22;11967;50.852;4.400;2023-02-16T01:07:42;12.20;99.90
23579;DHT22;11967;50.852;4.400;2023-02-16T01:10:46;12.20;99.90
23579;DHT22;11967;50.852;4.400;2023-02-16T01:13:34;12.10;99.90
23579;DHT22;11967;50.852;4.400;2023-02-16T01:16:01;12.10;99.90
23579;DHT22;11967;50.852;4.400;2023-02-16T01:18:26;12.00;99.90
23579;DHT22;11967;50.852;4.400;2023-02-16T01:20:52;12.10;99.90
23579;DHT22;11967;50.852;4.400;2023-02-16T01:23:18;12.10;99.90
23579;DHT22;11967;50.852;4.400;2023-02-16T01:25:44;12.00;99.90
23579;DHT22;11967;50.852;4.400;2023-02-16T01:28:36;12.10;99.90
23579;DHT22;11967;50.852;4.400;2023-02-16T01:31:03;12.10;99.90
23579;DHT22;11967;50.852;4.400;2023-02-16T01:33:31;12.00;99.90
23579;DHT22;11967;50.852;4.400;2023-02-16T01:35:58;12.10;99.90
23579;DHT22;11967;50.852;4.400;2023-02-16T01:38:28;12.00;99.90
23579;DHT22;11967;50.852;4.400;2023-02-16T01:46:20;12.00;99.90
23579;DHT22;11967;50.852;4.400;2023-02-16T01:48:47;12.10;99.90
23579;DHT22;11967;50.852;4.400;2023-02-16T01:51:23;12.00;99.90
23579;DHT22;11967;50.852;4.400;2023-02-16T01:53:54;12.00;99.90
23579;DHT22;11967;50.852;4.400;2023-02-16T01:56:41;12.00;99.90
23579;DHT22;11967;50.852;4.400;2023-02-16T01:59:37;12.00;99.90
23579;DHT22;11967;50.852;4.400;2023-02-16T02:02:21;12.10;99.90
23579;DHT22;11967;50.852;4.400;2023-02-16T02:04:58;12.20;99.90
23579;DHT22;11967;50.852;4.400;2023-02-16T02:08:19;12.10;99.90
23579;DHT22;11967;50.852;4.400;2023-02-16T02:11:12;12.00;99.90
23579;DHT22;11967;50.852;4.400;2023-02-16T02:13:54;12.00;99.90
23579;DHT22;11967;50.852;4.400;2023-02-16T02:16:24;12.00;99.90
23579;DHT22;11967;50.852;4.400;2023-02-16T02:18:51;12.00;99.90
23579;DHT22;11967;50.852;4.400;2023-02-16T02:27:30;12.00;99.90
23579;DHT22;11967;50.852;4.400;2023-02-16T02:40:52;11.90;99.90
23579;DHT22;11967;50.852;4.400;2023-02-16T02:46:26;11.80;99.90
23579;DHT22;11967;50.852;4.400;2023-02-16T02:49:01;11.80;99.90
23579;DHT22;11967;50.852;4.400;2023-02-16T02:51:26;11.80;99.90
23579;DHT22;11967;50.852;4.400;2023-02-16T02:59:39;11.90;99.90
23579;DHT22;11967;50.852;4.400;2023-02-16T03:02:27;11.90;99.90
23579;DHT22;11967;50.852;4.400;2023-02-16T03:04:56;11.90;99.90
23579;DHT22;11967;50.852;4.400;2023-02-16T03:07:24;11.90;99.90
23579;DHT22;11967;50.852;4.400;2023-02-16T03:10:25;11.90;99.90
23579;DHT22;11967;50.852;4.400;2023-02-16T03:13:15;11.90;99.90
23579;DHT22;11967;50.852;4.400;2023-02-16T03:15:43;11.80;99.90
23579;DHT22;11967;50.852;4.400;2023-02-16T03:18:12;12.00;99.90
23579;DHT22;11967;50.852;4.400;2023-02-16T03:20:58;11.90;99.90
23579;DHT22;11967;50.852;4.400;2023-02-16T03:23:43;12.00;99.90
23579;DHT22;11967;50.852;4.400;2023-02-16T03:26:28;11.90;99.90
23579;DHT22;11967;50.852;4.400;2023-02-16T03:29:13;11.80;99.90
23579;DHT22;11967;50.852;4.400;2023-02-16T03:31:44;11.80;99.90
23579;DHT22;11967;50.852;4.400;2023-02-16T03:34:11;11.80;99.90
23579;DHT22;11967;50.852;4.400;2023-02-16T03:36:39;11.80;99.90
23579;DHT22;11967;50.852;4.400;2023-02-16T03:39:06;11.90;99.90
23579;DHT22;11967;50.852;4.400;2023-02-16T03:41:34;11.90;99.90
23579;DHT22;11967;50.852;4.400;2023-02-16T03:44:02;11.90;99.90
23579;DHT22;11967;50.852;4.400;2023-02-16T03:46:28;11.80;99.90
23579;DHT22;11967;50.852;4.400;2023-02-16T03:48:54;11.90;99.90
23579;DHT22;11967;50.852;4.400;2023-02-16T03:51:20;12.00;99.90
23579;DHT22;11967;50.852;4.400;2023-02-16T03:53:45;12.00;99.90
23579;DHT22;11967;50.852;4.400;2023-02-16T03:56:11;12.00;99.90
23579;DHT22;11967;50.852;4.400;2023-02-16T03:58:37;12.00;99.90
23579;DHT22;11967;50.852;4.400;2023-02-16T04:01:02;11.90;99.90
23579;DHT22;11967;50.852;4.400;2023-02-16T04:03:28;11.90;99.90
23579;DHT22;11967;50.852;4.400;2023-02-16T04:05:54;11.90;99.90
23579;DHT22;11967;50.852;4.400;2023-02-16T04:08:21;11.70;99.90
23579;DHT22;11967;50.852;4.400;2023-02-16T04:10:47;11.70;99.90
23579;DHT22;11967;50.852;4.400;2023-02-16T04:13:13;11.70;99.90
23579;DHT22;11967;50.852;4.400;2023-02-16T04:15:38;11.70;99.90
23579;DHT22;11967;50.852;4.400;2023-02-16T04:18:05;11.70;99.90
23579;DHT22;11967;50.852;4.400;2023-02-16T04:20:33;11.70;99.90
23579;DHT22;11967;50.852;4.400;2023-02-16T04:22:59;11.70;99.90
23579;DHT22;11967;50.852;4.400;2023-02-16T04:25:25;11.60;99.90
23579;DHT22;11967;50.852;4.400;2023-02-16T04:27:51;11.70;99.90
23579;DHT22;11967;50.852;4.400;2023-02-16T04:30:20;11.80;99.90
23579;DHT22;11967;50.852;4.400;2023-02-16T04:32:46;11.60;99.90
23579;DHT22;11967;50.852;4.400;2023-02-16T04:35:12;11.70;99.90
23579;DHT22;11967;50.852;4.400;2023-02-16T04:37:37;11.70;99.90
23579;DHT22;11967;50.852;4.400;2023-02-16T04:40:04;11.80;99.90
23579;DHT22;11967;50.852;4.400;2023-02-16T04:42:30;11.70;99.90
23579;DHT22;11967;50.852;4.400;2023-02-16T04:44:56;11.80;99.90
23579;DHT22;11967;50.852;4.400;2023-02-16T04:47:22;11.70;99.90
23579;DHT22;11967;50.852;4.400;2023-02-16T04:49:50;11.70;99.90
23579;DHT22;11967;50.852;4.400;2023-02-16T04:52:16;11.60;99.90
23579;DHT22;11967;50.852;4.400;2023-02-16T04:54:41;11.60;99.90
23579;DHT22;11967;50.852;4.400;2023-02-16T04:57:09;11.60;99.90
23579;DHT22;11967;50.852;4.400;2023-02-16T04:59:35;11.70;99.90
23579;DHT22;11967;50.852;4.400;2023-02-16T05:02:01;11.70;99.90
23579;DHT22;11967;50.852;4.400;2023-02-16T05:04:27;11.70;99.90
23579;DHT22;11967;50.852;4.400;2023-02-16T05:06:53;11.70;99.90
23579;DHT22;11967;50.852;4.400;2023-02-16T05:09:19;11.70;99.90
23579;DHT22;11967;50.852;4.400;2023-02-16T05:11:46;11.70;99.90
23579;DHT22;11967;50.852;4.400;2023-02-16T05:14:32;11.60;99.90
23579;DHT22;11967;50.852;4.400;2023-02-16T05:17:18;11.80;99.90
23579;DHT22;11967;50.852;4.400;2023-02-16T05:19:47;11.80;99.90
23579;DHT22;11967;50.852;4.400;2023-02-16T05:22:14;11.80;99.90
23579;DHT22;11967;50.852;4.400;2023-02-16T05:24:41;11.90;99.90
23579;DHT22;11967;50.852;4.400;2023-02-16T05:27:10;11.80;99.90
23579;DHT22;11967;50.852;4.400;2023-02-16T05:29:36;11.80;99.90
23579;DHT22;11967;50.852;4.400;2023-02-16T05:32:02;11.80;99.90
23579;DHT22;11967;50.852;4.400;2023-02-16T05:34:27;11.80;99.90
23579;DHT22;11967;50.852;4.400;2023-02-16T05:36:53;11.90;99.90
23579;DHT22;11967;50.852;4.400;2023-02-16T05:39:21;11.80;99.90
23579;DHT22;11967;50.852;4.400;2023-02-16T05:41:47;11.90;99.90
23579;DHT22;11967;50.852;4.400;2023-02-16T05:44:15;11.90;99.90
23579;DHT22;11967;50.852;4.400;2023-02-16T05:46:42;11.90;99.90
23579;DHT22;11967;50.852;4.400;2023-02-16T05:49:08;11.90;99.90
23579;DHT22;11967;50.852;4.400;2023-02-16T05:51:34;11.80;99.90
23579;DHT22;11967;50.852;4.400;2023-02-16T05:54:00;11.80;99.90
23579;DHT22;11967;50.852;4.400;2023-02-16T05:56:27;11.80;99.90
23579;DHT22;11967;50.852;4.400;2023-02-16T05:58:53;11.80;99.90
23579;DHT22;11967;50.852;4.400;2023-02-16T06:01:19;11.80;99.90
23579;DHT22;11967;50.852;4.400;2023-02-16T06:03:45;11.80;99.90
23579;DHT22;11967;50.852;4.400;2023-02-16T06:06:12;11.80;99.90
23579;DHT22;11967;50.852;4.400;2023-02-16T06:08:38;11.90;99.90
23579;DHT22;11967;50.852;4.400;2023-02-16T06:11:05;11.90;99.90
23579;DHT22;11967;50.852;4.400;2023-02-16T06:13:32;11.80;99.90
23579;DHT22;11967;50.852;4.400;2023-02-16T06:15:58;11.80;99.90
23579;DHT22;11967;50.852;4.400;2023-02-16T06:18:25;11.80;99.90
23579;DHT22;11967;50.852;4.400;2023-02-16T06:20:55;11.70;99.90
23579;DHT22;11967;50.852;4.400;2023-02-16T06:23:21;11.80;99.90
23579;DHT22;11967;50.852;4.400;2023-02-16T06:25:48;11.70;99.90
23579;DHT22;11967;50.852;4.400;2023-02-16T06:28:15;11.70;99.90
23579;DHT22;11967;50.852;4.400;2023-02-16T06:30:43;11.60;99.90
23579;DHT22;11967;50.852;4.400;2023-02-16T06:33:08;11.60;99.90
23579;DHT22;11967;50.852;4.400;2023-02-16T06:35:34;11.60;99.90
23579;DHT22;11967;50.852;4.400;2023-02-16T06:38:00;11.60;99.90
23579;DHT22;11967;50.852;4.400;2023-02-16T06:40:26;11.70;99.90
23579;DHT22;11967;50.852;4.400;2023-02-16T06:42:52;11.70;99.90
23579;DHT22;11967;50.852;4.400;2023-02-16T06:45:18;11.70;99.90
23579;DHT22;11967;50.852;4.400;2023-02-16T06:47:44;11.70;99.90
23579;DHT22;11967;50.852;4.400;2023-02-16T06:50:13;11.60;99.90
23579;DHT22;11967;50.852;4.400;2023-02-16T06:52:38;11.70;99.90
23579;DHT22;11967;50.852;4.400;2023-02-16T06:55:04;11.60;99.90
23579;DHT22;11967;50.852;4.400;2023-02-16T06:57:31;11.60;99.90
23579;DHT22;11967;50.852;4.400;2023-02-16T06:59:58;11.60;99.90
23579;DHT22;11967;50.852;4.400;2023-02-16T07:02:25;11.60;99.90
23579;DHT22;11967;50.852;4.400;2023-02-16T07:04:51;11.50;99.90
23579;DHT22;11967;50.852;4.400;2023-02-16T07:07:17;11.50;99.90
23579;DHT22;11967;50.852;4.400;2023-02-16T07:09:43;11.40;99.90
23579;DHT22;11967;50.852;4.400;2023-02-16T07:12:08;11.50;99.90
23579;DHT22;11967;50.852;4.400;2023-02-16T07:14:34;11.50;99.90
23579;DHT22;11967;50.852;4.400;2023-02-16T07:17:03;11.50;99.90
23579;DHT22;11967;50.852;4.400;2023-02-16T07:19:30;11.60;99.90
23579;DHT22;11967;50.852;4.400;2023-02-16T07:22:00;11.60;99.90
23579;DHT22;11967;50.852;4.400;2023-02-16T07:24:26;11.70;99.90
23579;DHT22;11967;50.852;4.400;2023-02-16T07:26:54;11.80;99.90
23579;DHT22;11967;50.852;4.400;2023-02-16T07:29:20;12.00;99.90
23579;DHT22;11967;50.852;4.400;2023-02-16T07:31:45;11.90;99.90
23579;DHT22;11967;50.852;4.400;2023-02-16T07:34:11;11.80;99.90
23579;DHT22;11967;50.852;4.400;2023-02-16T07:36:37;11.70;99.90
23579;DHT22;11967;50.852;4.400;2023-02-16T07:39:02;11.60;99.90
23579;DHT22;11967;50.852;4.400;2023-02-16T07:41:29;11.50;99.90
23579;DHT22;11967;50.852;4.400;2023-02-16T07:43:55;11.50;99.90
23579;DHT22;11967;50.852;4.400;2023-02-16T07:46:20;11.60;99.90
23579;DHT22;11967;50.852;4.400;2023-02-16T07:48:49;11.50;99.90
23579;DHT22;11967;50.852;4.400;2023-02-16T07:51:26;11.50;99.90
23579;DHT22;11967;50.852;4.400;2023-02-16T07:53:52;11.40;99.90
23579;DHT22;11967;50.852;4.400;2023-02-16T07:56:27;11.30;99.90
23579;DHT22;11967;50.852;4.400;2023-02-16T07:58:54;11.30;99.90
23579;DHT22;11967;50.852;4.400;2023-02-16T08:01:22;11.30;99.90
23579;DHT22;11967;50.852;4.400;2023-02-16T08:03:48;11.40;99.90
23579;DHT22;11967;50.852;4.400;2023-02-16T08:06:14;11.50;99.90
23579;DHT22;11967;50.852;4.400;2023-02-16T08:08:40;11.50;99.90
23579;DHT22;11967;50.852;4.400;2023-02-16T08:13:35;11.50;99.90
23579;DHT22;11967;50.852;4.400;2023-02-16T08:16:01;11.50;99.90
23579;DHT22;11967;50.852;4.400;2023-02-16T08:18:28;11.40;99.90
23579;DHT22;11967;50.852;4.400;2023-02-16T08:20:54;11.40;99.90
23579;DHT22;11967;50.852;4.400;2023-02-16T08:23:23;11.40;99.90
23579;DHT22;11967;50.852;4.400;2023-02-16T08:25:49;11.40;99.90
23579;DHT22;11967;50.852;4.400;2023-02-16T08:28:14;11.40;99.90
23579;DHT22;11967;50.852;4.400;2023-02-16T08:30:40;11.50;99.90
23579;DHT22;11967;50.852;4.400;2023-02-16T08:33:07;11.50;99.90
23579;DHT22;11967;50.852;4.400;2023-02-16T08:35:36;11.50;99.90
23579;DHT22;11967;50.852;4.400;2023-02-16T08:38:02;11.60;99.90
23579;DHT22;11967;50.852;4.400;2023-02-16T08:40:28;11.60;99.90
23579;DHT22;11967;50.852;4.400;2023-02-16T08:42:54;11.50;99.90
23579;DHT22;11967;50.852;4.400;2023-02-16T08:45:20;11.40;99.90
23579;DHT22;11967;50.852;4.400;2023-02-16T08:47:47;11.50;99.90
23579;DHT22;11967;50.852;4.400;2023-02-16T08:50:13;11.50;99.90
23579;DHT22;11967;50.852;4.400;2023-02-16T08:52:41;11.50;99.90
23579;DHT22;11967;50.852;4.400;2023-02-16T08:55:06;11.50;99.90
23579;DHT22;11967;50.852;4.400;2023-02-16T08:57:33;11.50;99.90
23579;DHT22;11967;50.852;4.400;2023-02-16T09:00:00;11.40;99.90
23579;DHT22;11967;50.852;4.400;2023-02-16T09:02:44;11.40;99.90
23579;DHT22;11967;50.852;4.400;2023-02-16T09:05:11;11.30;99.90
23579;DHT22;11967;50.852;4.400;2023-02-16T09:07:37;11.30;99.90
23579;DHT22;11967;50.852;4.400;2023-02-16T09:10:03;11.30;99.90
23579;DHT22;11967;50.852;4.400;2023-02-16T09:12:29;11.30;99.90
23579;DHT22;11967;50.852;4.400;2023-02-16T09:14:55;11.30;99.90
23579;DHT22;11967;50.852;4.400;2023-02-16T09:17:22;11.30;99.90
23579;DHT22;11967;50.852;4.400;2023-02-16T09:19:48;11.40;99.90
23579;DHT22;11967;50.852;4.400;2023-02-16T09:22:13;11.40;99.90
23579;DHT22;11967;50.852;4.400;2023-02-16T09:24:39;11.30;99.90
23579;DHT22;11967;50.852;4.400;2023-02-16T09:27:05;11.30;99.90
23579;DHT22;11967;50.852;4.400;2023-02-16T09:29:31;11.40;99.90
23579;DHT22;11967;50.852;4.400;2023-02-16T09:31:57;11.40;99.90
23579;DHT22;11967;50.852;4.400;2023-02-16T09:34:23;11.40;99.90
23579;DHT22;11967;50.852;4.400;2023-02-16T09:36:49;11.40;99.90
23579;DHT22;11967;50.852;4.400;2023-02-16T09:39:16;11.40;99.90
23579;DHT22;11967;50.852;4.400;2023-02-16T09:44:46;11.40;99.90
23579;DHT22;11967;50.852;4.400;2023-02-16T09:47:35;11.40;99.90
23579;DHT22;11967;50.852;4.400;2023-02-16T09:50:12;11.50;99.90
23579;DHT22;11967;50.852;4.400;2023-02-16T09:52:42;11.50;99.90
23579;DHT22;11967;50.852;4.400;2023-02-16T09:55:17;11.60;99.90
23579;DHT22;11967;50.852;4.400;2023-02-16T09:58:04;11.50;99.90
23579;DHT22;11967;50.852;4.400;2023-02-16T10:06:19;11.50;99.90
23579;DHT22;11967;50.852;4.400;2023-02-16T10:08:52;11.50;99.90
23579;DHT22;11967;50.852;4.400;2023-02-16T10:11:28;11.60;99.90
23579;DHT22;11967;50.852;4.400;2023-02-16T10:14:28;11.60;99.90
23579;DHT22;11967;50.852;4.400;2023-02-16T10:17:16;11.70;99.90
23579;DHT22;11967;50.852;4.400;2023-02-16T10:25:23;11.60;99.90
23579;DHT22;11967;50.852;4.400;2023-02-16T10:28:15;11.70;99.90
23579;DHT22;11967;50.852;4.400;2023-02-16T10:30:43;11.80;99.90
23579;DHT22;11967;50.852;4.400;2023-02-16T10:33:45;11.90;99.90
23579;DHT22;11967;50.852;4.400;2023-02-16T10:36:26;11.90;99.90
23579;DHT22;11967;50.852;4.400;2023-02-16T10:39:18;11.90;99.90
23579;DHT22;11967;50.852;4.400;2023-02-16T10:41:54;11.90;99.90
23579;DHT22;11967;50.852;4.400;2023-02-16T10:44:33;11.90;99.90
23579;DHT22;11967;50.852;4.400;2023-02-16T10:47:03;11.90;99.90
23579;DHT22;11967;50.852;4.400;2023-02-16T10:49:31;11.90;99.90
23579;DHT22;11967;50.852;4.400;2023-02-16T10:52:01;12.00;99.90
23579;DHT22;11967;50.852;4.400;2023-02-16T10:54:29;12.10;99.90
23579;DHT22;11967;50.852;4.400;2023-02-16T10:57:06;12.20;99.90
23579;DHT22;11967;50.852;4.400;2023-02-16T10:59:38;12.30;99.90
23579;DHT22;11967;50.852;4.400;2023-02-16T11:04:47;12.50;99.90
23579;DHT22;11967;50.852;4.400;2023-02-16T11:07:16;12.50;99.90
23579;DHT22;11967;50.852;4.400;2023-02-16T11:09:45;12.60;99.90
23579;DHT22;11967;50.852;4.400;2023-02-16T11:12:15;12.70;99.90
23579;DHT22;11967;50.852;4.400;2023-02-16T11:14:48;12.70;99.90
23579;DHT22;11967;50.852;4.400;2023-02-16T11:17:16;12.80;99.90
23579;DHT22;11967;50.852;4.400;2023-02-16T11:19:55;12.80;99.90
23579;DHT22;11967;50.852;4.400;2023-02-16T11:22:34;12.80;99.90
23579;DHT22;11967;50.852;4.400;2023-02-16T11:25:30;12.90;99.90
23579;DHT22;11967;50.852;4.400;2023-02-16T11:27:59;13.00;99.90
23579;DHT22;11967;50.852;4.400;2023-02-16T11:30:40;13.10;99.90
23579;DHT22;11967;50.852;4.400;2023-02-16T11:33:24;13.10;99.90
23579;DHT22;11967;50.852;4.400;2023-02-16T11:35:54;13.10;99.90
23579;DHT22;11967;50.852;4.400;2023-02-16T11:38:35;13.10;99.90
23579;DHT22;11967;50.852;4.400;2023-02-16T11:41:04;13.10;99.90
23579;DHT22;11967;50.852;4.400;2023-02-16T11:43:34;13.20;99.90
23579;DHT22;11967;50.852;4.400;2023-02-16T11:46:16;13.30;99.90
23579;DHT22;11967;50.852;4.400;2023-02-16T11:48:43;13.30;99.90
23579;DHT22;11967;50.852;4.400;2023-02-16T11:51:11;13.30;99.90
23579;DHT22;11967;50.852;4.400;2023-02-16T11:53:41;13.40;99.90
23579;DHT22;11967;50.852;4.400;2023-02-16T11:56:17;13.50;99.90
23579;DHT22;11967;50.852;4.400;2023-02-16T12:02:22;13.70;99.90
23579;DHT22;11967;50.852;4.400;2023-02-16T12:10:27;13.80;99.90
23579;DHT22;11967;50.852;4.400;2023-02-16T12:13:05;13.90;99.90
23579;DHT22;11967;50.852;4.400;2023-02-16T12:15:50;14.00;99.90
23579;DHT22;11967;50.852;4.400;2023-02-16T12:23:54;14.00;99.90
23579;DHT22;11967;50.852;4.400;2023-02-16T12:26:38;13.90;99.90
23579;DHT22;11967;50.852;4.400;2023-02-16T12:37:42;14.10;99.90
23579;DHT22;11967;50.852;4.400;2023-02-16T12:45:19;14.60;99.90
23579;DHT22;11967;50.852;4.400;2023-02-16T12:47:56;14.60;99.90
23579;DHT22;11967;50.852;4.400;2023-02-16T12:50:28;14.70;99.90
23579;DHT22;11967;50.852;4.400;2023-02-16T12:53:02;14.70;99.90
23579;DHT22;11967;50.852;4.400;2023-02-16T12:55:43;14.80;99.90
23579;DHT22;11967;50.852;4.400;2023-02-16T12:58:20;14.70;99.90
23579;DHT22;11967;50.852;4.400;2023-02-16T13:00:53;14.60;99.90
23579;DHT22;11967;50.852;4.400;2023-02-16T13:08:54;14.60;99.90
23579;DHT22;11967;50.852;4.400;2023-02-16T13:14:20;14.80;99.90
23579;DHT22;11967;50.852;4.400;2023-02-16T13:16:58;14.80;99.90
23579;DHT22;11967;50.852;4.400;2023-02-16T13:19:26;14.90;99.90
23579;DHT22;11967;50.852;4.400;2023-02-16T13:35:59;14.90;99.90
23579;DHT22;11967;50.852;4.400;2023-02-16T13:41:50;15.00;99.90
23579;DHT22;11967;50.852;4.400;2023-02-16T13:44:17;15.00;99.90
23579;DHT22;11967;50.852;4.400;2023-02-16T13:46:46;15.00;99.90
23579;DHT22;11967;50.852;4.400;2023-02-16T13:49:32;15.00;99.90
23579;DHT22;11967;50.852;4.400;2023-02-16T13:52:00;15.00;99.90
23579;DHT22;11967;50.852;4.400;2023-02-16T13:54:32;15.00;99.90
23579;DHT22;11967;50.852;4.400;2023-02-16T13:57:00;15.00;99.90
23579;DHT22;11967;50.852;4.400;2023-02-16T14:01:55;14.80;99.90
23579;DHT22;11967;50.852;4.400;2023-02-16T14:12:16;14.60;99.90
23579;DHT22;11967;50.852;4.400;2023-02-16T14:14:53;14.50;99.90
23579;DHT22;11967;50.852;4.400;2023-02-16T14:19:52;14.50;99.90
23579;DHT22;11967;50.852;4.400;2023-02-16T14:22:21;14.60;99.90
23579;DHT22;11967;50.852;4.400;2023-02-16T14:24:59;14.70;99.90
23579;DHT22;11967;50.852;4.400;2023-02-16T14:30:42;14.40;99.90
23579;DHT22;11967;50.852;4.400;2023-02-16T14:35:45;14.30;99.90
23579;DHT22;11967;50.852;4.400;2023-02-16T14:38:16;14.20;99.90
23579;DHT22;11967;50.852;4.400;2023-02-16T14:40:53;14.30;99.90
23579;DHT22;11967;50.852;4.400;2023-02-16T15:03:41;14.00;99.90
23579;DHT22;11967;50.852;4.400;2023-02-16T15:06:18;14.10;99.90
23579;DHT22;11967;50.852;4.400;2023-02-16T15:08:47;14.20;99.90
23579;DHT22;11967;50.852;4.400;2023-02-16T15:11:20;14.20;99.90
23579;DHT22;11967;50.852;4.400;2023-02-16T15:13:47;14.10;99.90
23579;DHT22;11967;50.852;4.400;2023-02-16T15:16:19;14.20;99.90
23579;DHT22;11967;50.852;4.400;2023-02-16T15:18:50;14.10;99.90
23579;DHT22;11967;50.852;4.400;2023-02-16T15:21:20;14.20;99.90
23579;DHT22;11967;50.852;4.400;2023-02-16T15:23:52;14.20;99.90
23579;DHT22;11967;50.852;4.400;2023-02-16T15:26:25;14.20;99.90
23579;DHT22;11967;50.852;4.400;2023-02-16T15:28:57;14.20;99.90
23579;DHT22;11967;50.852;4.400;2023-02-16T15:31:31;14.20;99.90
23579;DHT22;11967;50.852;4.400;2023-02-16T15:34:03;14.20;99.90
23579;DHT22;11967;50.852;4.400;2023-02-16T15:36:37;14.20;99.90
23579;DHT22;11967;50.852;4.400;2023-02-16T15:39:07;14.30;99.90
23579;DHT22;11967;50.852;4.400;2023-02-16T15:41:37;14.30;99.90
23579;DHT22;11967;50.852;4.400;2023-02-16T15:44:05;14.20;99.90
23579;DHT22;11967;50.852;4.400;2023-02-16T15:46:37;14.20;99.90
23579;DHT22;11967;50.852;4.400;2023-02-16T15:49:12;14.20;99.90
23579;DHT22;11967;50.852;4.400;2023-02-16T15:51:39;14.20;99.90
23579;DHT22;11967;50.852;4.400;2023-02-16T15:54:29;14.10;99.90
23579;DHT22;11967;50.852;4.400;2023-02-16T15:57:28;14.10;99.90
23579;DHT22;11967;50.852;4.400;2023-02-16T16:00:15;14.00;99.90
23579;DHT22;11967;50.852;4.400;2023-02-16T16:02:49;13.90;99.90
23579;DHT22;11967;50.852;4.400;2023-02-16T16:05:32;13.90;99.90
23579;DHT22;11967;50.852;4.400;2023-02-16T16:08:01;13.90;99.90
23579;DHT22;11967;50.852;4.400;2023-02-16T16:10:33;13.80;99.90
23579;DHT22;11967;50.852;4.400;2023-02-16T16:13:12;13.90;99.90
23579;DHT22;11967;50.852;4.400;2023-02-16T16:15:41;13.80;99.90
23579;DHT22;11967;50.852;4.400;2023-02-16T16:24:04;13.90;99.90
23579;DHT22;11967;50.852;4.400;2023-02-16T16:26:33;13.90;99.90
23579;DHT22;11967;50.852;4.400;2023-02-16T16:29:01;13.90;99.90
23579;DHT22;11967;50.852;4.400;2023-02-16T16:34:07;13.80;99.90
23579;DHT22;11967;50.852;4.400;2023-02-16T16:36:38;13.70;99.90
23579;DHT22;11967;50.852;4.400;2023-02-16T16:42:07;13.60;99.90
23579;DHT22;11967;50.852;4.400;2023-02-16T16:44:34;13.60;99.90
23579;DHT22;11967;50.852;4.400;2023-02-16T16:47:27;13.60;99.90
23579;DHT22;11967;50.852;4.400;2023-02-16T16:50:00;13.60;99.90
23579;DHT22;11967;50.852;4.400;2023-02-16T16:52:45;13.60;99.90
23579;DHT22;11967;50.852;4.400;2023-02-16T16:57:44;13.60;99.90
23579;DHT22;11967;50.852;4.400;2023-02-16T17:00:10;13.50;99.90
23579;DHT22;11967;50.852;4.400;2023-02-16T17:02:36;13.50;99.90
23579;DHT22;11967;50.852;4.400;2023-02-16T17:05:03;13.60;99.90
23579;DHT22;11967;50.852;4.400;2023-02-16T17:07:29;13.60;99.90
23579;DHT22;11967;50.852;4.400;2023-02-16T17:09:55;13.50;99.90
23579;DHT22;11967;50.852;4.400;2023-02-16T17:12:22;13.60;99.90
23579;DHT22;11967;50.852;4.400;2023-02-16T17:14:49;13.60;99.90
23579;DHT22;11967;50.852;4.400;2023-02-16T17:17:15;13.60;99.90
23579;DHT22;11967;50.852;4.400;2023-02-16T17:19:40;13.60;99.90
23579;DHT22;11967;50.852;4.400;2023-02-16T17:22:17;13.50;99.90
23579;DHT22;11967;50.852;4.400;2023-02-16T17:24:45;13.50;99.90
23579;DHT22;11967;50.852;4.400;2023-02-16T17:27:12;13.50;99.90
23579;DHT22;11967;50.852;4.400;2023-02-16T17:29:38;13.50;99.90
23579;DHT22;11967;50.852;4.400;2023-02-16T17:32:07;13.50;99.90
23579;DHT22;11967;50.852;4.400;2023-02-16T17:34:34;13.50;99.90
23579;DHT22;11967;50.852;4.400;2023-02-16T17:37:05;13.50;99.90
23579;DHT22;11967;50.852;4.400;2023-02-16T17:39:35;13.50;99.90
23579;DHT22;11967;50.852;4.400;2023-02-16T17:42:01;13.40;99.90
23579;DHT22;11967;50.852;4.400;2023-02-16T17:44:27;13.50;99.90
23579;DHT22;11967;50.852;4.400;2023-02-16T17:46:53;13.50;99.90
23579;DHT22;11967;50.852;4.400;2023-02-16T17:49:19;13.50;99.90
23579;DHT22;11967;50.852;4.400;2023-02-16T17:51:44;13.60;99.90
23579;DHT22;11967;50.852;4.400;2023-02-16T17:54:10;13.50;99.90
23579;DHT22;11967;50.852;4.400;2023-02-16T17:56:37;13.40;99.90
23579;DHT22;11967;50.852;4.400;2023-02-16T17:59:06;13.40;99.90
23579;DHT22;11967;50.852;4.400;2023-02-16T18:01:33;13.40;99.90
23579;DHT22;11967;50.852;4.400;2023-02-16T18:03:59;13.40;99.90
23579;DHT22;11967;50.852;4.400;2023-02-16T18:06:27;13.20;99.90
23579;DHT22;11967;50.852;4.400;2023-02-16T18:08:53;13.20;99.90
23579;DHT22;11967;50.852;4.400;2023-02-16T18:11:18;13.10;99.90
23579;DHT22;11967;50.852;4.400;2023-02-16T18:13:44;13.20;99.90
23579;DHT22;11967;50.852;4.400;2023-02-16T18:16:14;13.20;99.90
23579;DHT22;11967;50.852;4.400;2023-02-16T18:18:43;13.20;99.90
23579;DHT22;11967;50.852;4.400;2023-02-16T18:21:09;13.20;99.90
23579;DHT22;11967;50.852;4.400;2023-02-16T18:23:34;13.30;99.90
23579;DHT22;11967;50.852;4.400;2023-02-16T18:26:00;13.40;99.90
23579;DHT22;11967;50.852;4.400;2023-02-16T18:28:29;13.40;99.90
23579;DHT22;11967;50.852;4.400;2023-02-16T18:30:55;13.40;99.90
23579;DHT22;11967;50.852;4.400;2023-02-16T18:33:21;13.30;99.90